sensor_id;sensor_type;location;lat;lon;timestamp;temperature;humidity
19952;DHT22;10137;49.406;19.484;2024-03-25T00:00:12;2.70;99.90
19952;DHT22;10137;49.406;19.484;2024-03-25T00:02:40;2.60;99.90
19952;DHT22;10137;49.406;19.484;2024-03-25T00:05:07;2.70;99.90
19952;DHT22;10137;49.406;19.484;2024-03-25T00:07:35;2.70;99.90
19952;DHT22;10137;49.406;19.484;2024-03-25T00:10:03;2.70;99.90
19952;DHT22;10137;49.406;19.484;2024-03-25T00:12:32;2.70;99.90
19952;DHT22;10137;49.406;19.484;2024-03-25T00:14:57;2.70;99.90
19952;DHT22;10137;49.406;19.484;2024-03-25T00:17:24;2.70;99.90
19952;DHT22;10137;49.406;19.484;2024-03-25T00:19:50;2.70;99.90
19952;DHT22;10137;49.406;19.484;2024-03-25T00:22:18;2.80;99.90
19952;DHT22;10137;49.406;19.484;2024-03-25T00:24:48;2.80;99.90
19952;DHT22;10137;49.406;19.484;2024-03-25T00:27:15;2.80;99.90
19952;DHT22;10137;49.406;19.484;2024-03-25T00:29:41;2.80;99.90
19952;DHT22;10137;49.406;19.484;2024-03-25T00:32:08;2.80;99.90
19952;DHT22;10137;49.406;19.484;2024-03-25T00:34:34;2.70;99.90
19952;DHT22;10137;49.406;19.484;2024-03-25T00:37:01;2.80;99.90
19952;DHT22;10137;49.406;19.484;2024-03-25T00:39:27;2.80;99.90
19952;DHT22;10137;49.406;19.484;2024-03-25T00:41:54;2.70;99.90
19952;DHT22;10137;49.406;19.484;2024-03-25T00:44:20;2.80;99.90
19952;DHT22;10137;49.406;19.484;2024-03-25T00:46:46;2.70;99.90
19952;DHT22;10137;49.406;19.484;2024-03-25T00:49:12;2.70;99.90
19952;DHT22;10137;49.406;19.484;2024-03-25T00:51:39;2.70;99.90
19952;DHT22;10137;49.406;19.484;2024-03-25T00:54:05;2.60;99.90
19952;DHT22;10137;49.406;19.484;2024-03-25T00:56:31;2.70;99.90
19952;DHT22;10137;49.406;19.484;2024-03-25T00:58:57;2.70;99.90
19952;DHT22;10137;49.406;19.484;2024-03-25T01:01:28;2.80;99.90
19952;DHT22;10137;49.406;19.484;2024-03-25T01:03:54;2.80;99.90
19952;DHT22;10137;49.406;19.484;2024-03-25T01:06:21;2.80;99.90
19952;DHT22;10137;49.406;19.484;2024-03-25T01:08:47;2.80;99.90
19952;DHT22;10137;49.406;19.484;2024-03-25T01:11:13;2.80;99.90
19952;DHT22;10137;49.406;19.484;2024-03-25T01:13:39;2.90;99.90
19952;DHT22;10137;49.406;19.484;2024-03-25T01:16:07;2.90;99.90
19952;DHT22;10137;49.406;19.484;2024-03-25T01:18:33;2.90;99.90
19952;DHT22;10137;49.406;19.484;2024-03-25T01:21:00;2.90;99.90
19952;DHT22;10137;49.406;19.484;2024-03-25T01:23:26;3.00;99.90
19952;DHT22;10137;49.406;19.484;2024-03-25T01:25:53;2.90;99.90
19952;DHT22;10137;49.406;19.484;2024-03-25T01:28:18;3.00;99.90
19952;DHT22;10137;49.406;19.484;2024-03-25T01:30:45;3.00;99.90
19952;DHT22;10137;49.406;19.484;2024-03-25T01:33:11;3.00;99.90
19952;DHT22;10137;49.406;19.484;2024-03-25T01:35:37;3.00;99.90
19952;DHT22;10137;49.406;19.484;2024-03-25T01:38:03;2.90;99.90
19952;DHT22;10137;49.406;19.484;2024-03-25T01:40:30;2.90;99.90
19952;DHT22;10137;49.406;19.484;2024-03-25T01:42:59;3.00;99.90
19952;DHT22;10137;49.406;19.484;2024-03-25T01:45:31;3.00;99.90
19952;DHT22;10137;49.406;19.484;2024-03-25T01:48:06;2.90;99.90
19952;DHT22;10137;49.406;19.484;2024-03-25T01:50:36;2.90;99.90
19952;DHT22;10137;49.406;19.484;2024-03-25T01:53:03;2.90;99.90
19952;DHT22;10137;49.406;19.484;2024-03-25T01:55:32;2.80;99.90
19952;DHT22;10137;49.406;19.484;2024-03-25T01:57:58;2.80;99.90
19952;DHT22;10137;49.406;19.484;2024-03-25T02:00:26;2.70;99.90
19952;DHT22;10137;49.406;19.484;2024-03-25T02:02:53;2.80;99.90
19952;DHT22;10137;49.406;19.484;2024-03-25T02:05:20;2.80;99.90
19952;DHT22;10137;49.406;19.484;2024-03-25T02:07:46;2.90;99.90
19952;DHT22;10137;49.406;19.484;2024-03-25T02:10:15;2.90;99.90
19952;DHT22;10137;49.406;19.484;2024-03-25T02:12:45;2.80;99.90
19952;DHT22;10137;49.406;19.484;2024-03-25T02:15:12;2.80;99.90
19952;DHT22;10137;49.406;19.484;2024-03-25T02:17:39;2.80;99.90
19952;DHT22;10137;49.406;19.484;2024-03-25T02:20:06;2.80;99.90
19952;DHT22;10137;49.406;19.484;2024-03-25T02:22:34;2.80;99.90
19952;DHT22;10137;49.406;19.484;2024-03-25T02:25:06;2.90;99.90
19952;DHT22;10137;49.406;19.484;2024-03-25T02:27:32;2.90;99.90
19952;DHT22;10137;49.406;19.484;2024-03-25T02:30:10;2.90;99.90
19952;DHT22;10137;49.406;19.484;2024-03-25T02:32:37;3.00;99.90
19952;DHT22;10137;49.406;19.484;2024-03-25T02:35:11;2.90;99.90
19952;DHT22;10137;49.406;19.484;2024-03-25T02:37:39;3.00;99.90
19952;DHT22;10137;49.406;19.484;2024-03-25T02:40:06;2.90;99.90
19952;DHT22;10137;49.406;19.484;2024-03-25T02:42:35;2.90;99.90
19952;DHT22;10137;49.406;19.484;2024-03-25T02:45:02;3.00;99.90
19952;DHT22;10137;49.406;19.484;2024-03-25T02:47:28;3.00;99.90
19952;DHT22;10137;49.406;19.484;2024-03-25T02:49:55;3.00;99.90
19952;DHT22;10137;49.406;19.484;2024-03-25T02:52:21;2.90;99.90
19952;DHT22;10137;49.406;19.484;2024-03-25T02:54:48;3.00;99.90
19952;DHT22;10137;49.406;19.484;2024-03-25T02:57:14;3.10;99.90
19952;DHT22;10137;49.406;19.484;2024-03-25T02:59:40;3.10;99.90
19952;DHT22;10137;49.406;19.484;2024-03-25T03:02:06;3.10;99.90
19952;DHT22;10137;49.406;19.484;2024-03-25T03:04:33;3.00;99.90
19952;DHT22;10137;49.406;19.484;2024-03-25T03:06:58;3.00;99.90
19952;DHT22;10137;49.406;19.484;2024-03-25T03:09:25;2.90;99.90
19952;DHT22;10137;49.406;19.484;2024-03-25T03:11:50;2.80;99.90
19952;DHT22;10137;49.406;19.484;2024-03-25T03:14:17;2.80;99.90
19952;DHT22;10137;49.406;19.484;2024-03-25T03:16:43;2.70;99.90
19952;DHT22;10137;49.406;19.484;2024-03-25T03:19:09;2.70;99.90
19952;DHT22;10137;49.406;19.484;2024-03-25T03:21:35;2.80;99.90
19952;DHT22;10137;49.406;19.484;2024-03-25T03:24:04;2.70;99.90
19952;DHT22;10137;49.406;19.484;2024-03-25T03:26:29;2.80;99.90
19952;DHT22;10137;49.406;19.484;2024-03-25T03:28:57;2.70;99.90
19952;DHT22;10137;49.406;19.484;2024-03-25T03:31:22;2.70;99.90
19952;DHT22;10137;49.406;19.484;2024-03-25T03:33:50;2.70;99.90
19952;DHT22;10137;49.406;19.484;2024-03-25T03:36:17;2.70;99.90
19952;DHT22;10137;49.406;19.484;2024-03-25T03:38:44;2.80;99.90
19952;DHT22;10137;49.406;19.484;2024-03-25T03:41:10;2.80;99.90
19952;DHT22;10137;49.406;19.484;2024-03-25T03:43:37;2.80;99.90
19952;DHT22;10137;49.406;19.484;2024-03-25T03:46:03;2.80;99.90
19952;DHT22;10137;49.406;19.484;2024-03-25T03:48:30;2.80;99.90
19952;DHT22;10137;49.406;19.484;2024-03-25T03:50:56;2.70;99.90
19952;DHT22;10137;49.406;19.484;2024-03-25T03:53:23;2.70;99.90
19952;DHT22;10137;49.406;19.484;2024-03-25T03:55:55;2.70;99.90
19952;DHT22;10137;49.406;19.484;2024-03-25T03:58:22;2.70;99.90
19952;DHT22;10137;49.406;19.484;2024-03-25T04:00:48;2.80;99.90
19952;DHT22;10137;49.406;19.484;2024-03-25T04:03:15;2.80;99.90
19952;DHT22;10137;49.406;19.484;2024-03-25T04:05:41;2.70;99.90
19952;DHT22;10137;49.406;19.484;2024-03-25T04:08:08;2.80;99.90
19952;DHT22;10137;49.406;19.484;2024-03-25T04:10:34;2.80;99.90
19952;DHT22;10137;49.406;19.484;2024-03-25T04:13:01;2.80;99.90
19952;DHT22;10137;49.406;19.484;2024-03-25T04:15:27;2.80;99.90
19952;DHT22;10137;49.406;19.484;2024-03-25T04:17:54;2.80;99.90
19952;DHT22;10137;49.406;19.484;2024-03-25T04:20:20;2.80;99.90
19952;DHT22;10137;49.406;19.484;2024-03-25T04:22:46;2.70;99.90
19952;DHT22;10137;49.406;19.484;2024-03-25T04:25:13;2.70;99.90
19952;DHT22;10137;49.406;19.484;2024-03-25T04:27:44;2.70;99.90
19952;DHT22;10137;49.406;19.484;2024-03-25T04:30:11;2.70;99.90
19952;DHT22;10137;49.406;19.484;2024-03-25T04:32:38;2.70;99.90
19952;DHT22;10137;49.406;19.484;2024-03-25T04:35:05;2.70;99.90
19952;DHT22;10137;49.406;19.484;2024-03-25T04:37:33;2.60;99.90
19952;DHT22;10137;49.406;19.484;2024-03-25T04:39:58;2.70;99.90
19952;DHT22;10137;49.406;19.484;2024-03-25T04:42:24;2.70;99.90
19952;DHT22;10137;49.406;19.484;2024-03-25T04:44:50;2.70;99.90
19952;DHT22;10137;49.406;19.484;2024-03-25T04:47:17;2.80;99.90
19952;DHT22;10137;49.406;19.484;2024-03-25T04:49:43;2.80;99.90
19952;DHT22;10137;49.406;19.484;2024-03-25T04:52:10;2.80;99.90
19952;DHT22;10137;49.406;19.484;2024-03-25T04:54:36;2.90;99.90
19952;DHT22;10137;49.406;19.484;2024-03-25T04:57:02;3.00;99.90
19952;DHT22;10137;49.406;19.484;2024-03-25T04:59:28;2.90;99.90
19952;DHT22;10137;49.406;19.484;2024-03-25T05:01:54;3.00;99.90
19952;DHT22;10137;49.406;19.484;2024-03-25T05:04:19;3.00;99.90
19952;DHT22;10137;49.406;19.484;2024-03-25T05:06:46;3.00;99.90
19952;DHT22;10137;49.406;19.484;2024-03-25T05:09:11;3.00;99.90
19952;DHT22;10137;49.406;19.484;2024-03-25T05:11:37;3.00;99.90
19952;DHT22;10137;49.406;19.484;2024-03-25T05:14:03;3.10;99.90
19952;DHT22;10137;49.406;19.484;2024-03-25T05:16:28;3.10;99.90
19952;DHT22;10137;49.406;19.484;2024-03-25T05:18:54;3.10;99.90
19952;DHT22;10137;49.406;19.484;2024-03-25T05:21:20;3.10;99.90
19952;DHT22;10137;49.406;19.484;2024-03-25T05:23:45;3.10;99.90
19952;DHT22;10137;49.406;19.484;2024-03-25T05:26:11;3.10;99.90
19952;DHT22;10137;49.406;19.484;2024-03-25T05:28:37;3.10;99.90
19952;DHT22;10137;49.406;19.484;2024-03-25T05:31:09;3.00;99.90
19952;DHT22;10137;49.406;19.484;2024-03-25T05:33:35;3.10;99.90
19952;DHT22;10137;49.406;19.484;2024-03-25T05:36:01;3.00;99.90
19952;DHT22;10137;49.406;19.484;2024-03-25T05:38:28;3.00;99.90
19952;DHT22;10137;49.406;19.484;2024-03-25T05:40:54;3.00;99.90
19952;DHT22;10137;49.406;19.484;2024-03-25T05:43:20;2.90;99.90
19952;DHT22;10137;49.406;19.484;2024-03-25T05:45:53;3.00;99.90
19952;DHT22;10137;49.406;19.484;2024-03-25T05:48:20;3.10;99.90
19952;DHT22;10137;49.406;19.484;2024-03-25T05:50:46;3.00;99.90
19952;DHT22;10137;49.406;19.484;2024-03-25T05:53:12;3.00;99.90
19952;DHT22;10137;49.406;19.484;2024-03-25T05:55:37;3.00;99.90
19952;DHT22;10137;49.406;19.484;2024-03-25T05:58:03;3.00;99.90
19952;DHT22;10137;49.406;19.484;2024-03-25T06:00:30;3.00;99.90
19952;DHT22;10137;49.406;19.484;2024-03-25T06:02:56;2.90;99.90
19952;DHT22;10137;49.406;19.484;2024-03-25T06:05:22;2.90;99.90
19952;DHT22;10137;49.406;19.484;2024-03-25T06:07:48;2.80;99.90
19952;DHT22;10137;49.406;19.484;2024-03-25T06:10:13;2.80;99.90
19952;DHT22;10137;49.406;19.484;2024-03-25T06:12:39;2.90;99.90
19952;DHT22;10137;49.406;19.484;2024-03-25T06:15:05;2.90;99.90
19952;DHT22;10137;49.406;19.484;2024-03-25T06:17:31;2.80;99.90
19952;DHT22;10137;49.406;19.484;2024-03-25T06:19:57;2.90;99.90
19952;DHT22;10137;49.406;19.484;2024-03-25T06:22:23;2.90;99.90
19952;DHT22;10137;49.406;19.484;2024-03-25T06:24:48;2.90;99.90
19952;DHT22;10137;49.406;19.484;2024-03-25T06:27:14;2.90;99.90
19952;DHT22;10137;49.406;19.484;2024-03-25T06:29:40;3.10;99.90
19952;DHT22;10137;49.406;19.484;2024-03-25T06:32:06;3.10;99.90
19952;DHT22;10137;49.406;19.484;2024-03-25T06:34:49;3.20;99.90
19952;DHT22;10137;49.406;19.484;2024-03-25T06:37:15;3.30;99.90
19952;DHT22;10137;49.406;19.484;2024-03-25T06:39:41;3.40;99.90
19952;DHT22;10137;49.406;19.484;2024-03-25T06:42:07;3.50;99.90
19952;DHT22;10137;49.406;19.484;2024-03-25T06:44:33;3.50;99.90
19952;DHT22;10137;49.406;19.484;2024-03-25T06:46:58;3.50;99.90
19952;DHT22;10137;49.406;19.484;2024-03-25T06:49:24;3.50;99.90
19952;DHT22;10137;49.406;19.484;2024-03-25T06:51:50;3.70;99.90
19952;DHT22;10137;49.406;19.484;2024-03-25T06:54:16;3.80;99.90
19952;DHT22;10137;49.406;19.484;2024-03-25T06:56:41;3.80;99.90
19952;DHT22;10137;49.406;19.484;2024-03-25T06:59:07;3.80;99.90
19952;DHT22;10137;49.406;19.484;2024-03-25T07:01:33;3.90;99.90
19952;DHT22;10137;49.406;19.484;2024-03-25T07:03:58;3.90;99.90
19952;DHT22;10137;49.406;19.484;2024-03-25T07:06:24;3.90;99.90
19952;DHT22;10137;49.406;19.484;2024-03-25T07:08:50;3.90;99.90
19952;DHT22;10137;49.406;19.484;2024-03-25T07:11:16;3.90;99.90
19952;DHT22;10137;49.406;19.484;2024-03-25T07:13:42;3.80;99.90
19952;DHT22;10137;49.406;19.484;2024-03-25T07:16:07;3.90;99.90
19952;DHT22;10137;49.406;19.484;2024-03-25T07:18:33;3.80;99.90
19952;DHT22;10137;49.406;19.484;2024-03-25T07:20:59;3.70;99.90
19952;DHT22;10137;49.406;19.484;2024-03-25T07:23:25;3.70;99.90
19952;DHT22;10137;49.406;19.484;2024-03-25T07:25:51;3.70;99.90
19952;DHT22;10137;49.406;19.484;2024-03-25T07:28:16;3.70;99.90
19952;DHT22;10137;49.406;19.484;2024-03-25T07:30:42;3.60;99.90
19952;DHT22;10137;49.406;19.484;2024-03-25T07:33:08;3.60;99.90
19952;DHT22;10137;49.406;19.484;2024-03-25T07:35:33;3.60;99.90
19952;DHT22;10137;49.406;19.484;2024-03-25T07:37:59;3.60;99.90
19952;DHT22;10137;49.406;19.484;2024-03-25T07:40:25;3.70;99.90
19952;DHT22;10137;49.406;19.484;2024-03-25T07:42:51;3.70;99.90
19952;DHT22;10137;49.406;19.484;2024-03-25T07:45:16;3.80;99.90
19952;DHT22;10137;49.406;19.484;2024-03-25T07:47:42;3.70;99.90
19952;DHT22;10137;49.406;19.484;2024-03-25T07:50:08;3.90;99.90
19952;DHT22;10137;49.406;19.484;2024-03-25T07:52:34;4.30;99.90
19952;DHT22;10137;49.406;19.484;2024-03-25T07:55:01;4.90;99.90
19952;DHT22;10137;49.406;19.484;2024-03-25T07:57:26;5.40;99.90
19952;DHT22;10137;49.406;19.484;2024-03-25T07:59:52;5.40;99.90
19952;DHT22;10137;49.406;19.484;2024-03-25T08:02:18;5.60;99.90
19952;DHT22;10137;49.406;19.484;2024-03-25T08:04:43;6.10;99.90
19952;DHT22;10137;49.406;19.484;2024-03-25T08:07:09;6.30;99.90
19952;DHT22;10137;49.406;19.484;2024-03-25T08:09:35;6.20;99.90
19952;DHT22;10137;49.406;19.484;2024-03-25T08:12:01;6.20;99.90
19952;DHT22;10137;49.406;19.484;2024-03-25T08:14:26;6.20;99.90
19952;DHT22;10137;49.406;19.484;2024-03-25T08:16:52;6.10;99.90
19952;DHT22;10137;49.406;19.484;2024-03-25T08:19:18;6.10;99.90
19952;DHT22;10137;49.406;19.484;2024-03-25T08:21:44;6.20;99.90
19952;DHT22;10137;49.406;19.484;2024-03-25T08:24:09;6.10;99.90
19952;DHT22;10137;49.406;19.484;2024-03-25T08:26:35;6.10;99.90
19952;DHT22;10137;49.406;19.484;2024-03-25T08:29:01;6.40;99.90
19952;DHT22;10137;49.406;19.484;2024-03-25T08:31:27;6.60;99.90
19952;DHT22;10137;49.406;19.484;2024-03-25T08:33:52;6.60;99.90
19952;DHT22;10137;49.406;19.484;2024-03-25T08:36:18;6.40;99.90
19952;DHT22;10137;49.406;19.484;2024-03-25T08:38:44;6.30;99.90
19952;DHT22;10137;49.406;19.484;2024-03-25T08:41:10;6.10;99.90
19952;DHT22;10137;49.406;19.484;2024-03-25T08:43:35;6.00;99.90
19952;DHT22;10137;49.406;19.484;2024-03-25T08:46:01;5.90;99.90
19952;DHT22;10137;49.406;19.484;2024-03-25T08:48:27;5.80;99.90
19952;DHT22;10137;49.406;19.484;2024-03-25T08:50:53;5.70;99.90
19952;DHT22;10137;49.406;19.484;2024-03-25T08:53:18;5.60;99.90
19952;DHT22;10137;49.406;19.484;2024-03-25T08:55:48;5.70;99.90
19952;DHT22;10137;49.406;19.484;2024-03-25T08:58:14;5.70;99.90
19952;DHT22;10137;49.406;19.484;2024-03-25T09:00:41;5.60;99.90
19952;DHT22;10137;49.406;19.484;2024-03-25T09:03:06;5.60;99.90
19952;DHT22;10137;49.406;19.484;2024-03-25T09:05:32;5.60;99.90
19952;DHT22;10137;49.406;19.484;2024-03-25T09:07:58;5.50;99.90
19952;DHT22;10137;49.406;19.484;2024-03-25T09:10:24;5.40;99.90
19952;DHT22;10137;49.406;19.484;2024-03-25T09:13:09;5.20;99.90
19952;DHT22;10137;49.406;19.484;2024-03-25T09:15:35;5.10;99.90
19952;DHT22;10137;49.406;19.484;2024-03-25T09:18:00;5.00;99.90
19952;DHT22;10137;49.406;19.484;2024-03-25T09:20:26;5.00;99.90
19952;DHT22;10137;49.406;19.484;2024-03-25T09:22:52;4.90;99.90
19952;DHT22;10137;49.406;19.484;2024-03-25T09:25:18;5.00;99.90
19952;DHT22;10137;49.406;19.484;2024-03-25T09:27:48;5.10;99.90
19952;DHT22;10137;49.406;19.484;2024-03-25T09:30:14;5.50;99.90
19952;DHT22;10137;49.406;19.484;2024-03-25T09:32:40;5.70;99.90
19952;DHT22;10137;49.406;19.484;2024-03-25T09:35:07;5.70;99.90
19952;DHT22;10137;49.406;19.484;2024-03-25T09:37:33;5.90;99.90
19952;DHT22;10137;49.406;19.484;2024-03-25T09:39:59;6.00;99.90
19952;DHT22;10137;49.406;19.484;2024-03-25T09:42:26;6.20;99.90
19952;DHT22;10137;49.406;19.484;2024-03-25T09:44:54;6.40;99.90
19952;DHT22;10137;49.406;19.484;2024-03-25T09:47:21;6.50;99.90
19952;DHT22;10137;49.406;19.484;2024-03-25T09:49:48;6.80;99.90
19952;DHT22;10137;49.406;19.484;2024-03-25T09:52:15;7.00;99.90
19952;DHT22;10137;49.406;19.484;2024-03-25T09:54:41;6.80;99.90
19952;DHT22;10137;49.406;19.484;2024-03-25T09:57:08;6.50;99.90
19952;DHT22;10137;49.406;19.484;2024-03-25T09:59:34;6.50;99.90
19952;DHT22;10137;49.406;19.484;2024-03-25T10:02:01;6.60;99.90
19952;DHT22;10137;49.406;19.484;2024-03-25T10:04:27;6.60;99.90
19952;DHT22;10137;49.406;19.484;2024-03-25T10:06:53;6.60;99.90
19952;DHT22;10137;49.406;19.484;2024-03-25T10:09:20;6.60;99.90
19952;DHT22;10137;49.406;19.484;2024-03-25T10:11:49;6.80;99.90
19952;DHT22;10137;49.406;19.484;2024-03-25T10:14:16;7.00;99.90
19952;DHT22;10137;49.406;19.484;2024-03-25T10:16:42;7.00;99.90
19952;DHT22;10137;49.406;19.484;2024-03-25T10:19:09;7.00;99.90
19952;DHT22;10137;49.406;19.484;2024-03-25T10:21:35;6.90;99.90
19952;DHT22;10137;49.406;19.484;2024-03-25T10:24:04;6.90;99.90
19952;DHT22;10137;49.406;19.484;2024-03-25T10:26:31;7.10;99.90
19952;DHT22;10137;49.406;19.484;2024-03-25T10:29:07;7.10;99.90
19952;DHT22;10137;49.406;19.484;2024-03-25T10:31:34;7.30;99.90
19952;DHT22;10137;49.406;19.484;2024-03-25T10:34:00;7.60;99.90
19952;DHT22;10137;49.406;19.484;2024-03-25T10:36:26;7.90;99.90
19952;DHT22;10137;49.406;19.484;2024-03-25T10:38:57;7.90;99.90
19952;DHT22;10137;49.406;19.484;2024-03-25T10:41:23;7.80;99.90
19952;DHT22;10137;49.406;19.484;2024-03-25T10:43:52;7.70;99.90
19952;DHT22;10137;49.406;19.484;2024-03-25T10:46:20;7.60;99.90
19952;DHT22;10137;49.406;19.484;2024-03-25T10:48:54;7.50;99.90
19952;DHT22;10137;49.406;19.484;2024-03-25T10:51:23;7.50;99.90
19952;DHT22;10137;49.406;19.484;2024-03-25T10:53:52;7.10;99.90
19952;DHT22;10137;49.406;19.484;2024-03-25T10:56:21;7.20;99.90
19952;DHT22;10137;49.406;19.484;2024-03-25T10:58:50;7.30;99.90
19952;DHT22;10137;49.406;19.484;2024-03-25T11:01:17;7.60;99.90
19952;DHT22;10137;49.406;19.484;2024-03-25T11:03:45;7.80;99.90
19952;DHT22;10137;49.406;19.484;2024-03-25T11:06:11;7.80;99.90
19952;DHT22;10137;49.406;19.484;2024-03-25T11:08:37;7.70;99.90
19952;DHT22;10137;49.406;19.484;2024-03-25T11:11:03;7.60;99.90
19952;DHT22;10137;49.406;19.484;2024-03-25T11:13:28;7.40;99.90
19952;DHT22;10137;49.406;19.484;2024-03-25T11:15:55;7.20;99.90
19952;DHT22;10137;49.406;19.484;2024-03-25T11:18:23;7.20;99.90
19952;DHT22;10137;49.406;19.484;2024-03-25T11:23:38;7.70;99.90
19952;DHT22;10137;49.406;19.484;2024-03-25T11:26:25;7.60;99.90
19952;DHT22;10137;49.406;19.484;2024-03-25T11:28:51;7.50;99.90
19952;DHT22;10137;49.406;19.484;2024-03-25T11:31:20;7.60;99.90
19952;DHT22;10137;49.406;19.484;2024-03-25T11:33:47;7.40;99.90
19952;DHT22;10137;49.406;19.484;2024-03-25T11:36:13;7.40;99.90
19952;DHT22;10137;49.406;19.484;2024-03-25T11:38:38;7.40;99.90
19952;DHT22;10137;49.406;19.484;2024-03-25T11:41:04;7.40;99.90
19952;DHT22;10137;49.406;19.484;2024-03-25T11:43:30;7.30;99.90
19952;DHT22;10137;49.406;19.484;2024-03-25T11:45:56;7.50;99.90
19952;DHT22;10137;49.406;19.484;2024-03-25T11:48:22;7.60;99.90
19952;DHT22;10137;49.406;19.484;2024-03-25T11:50:47;7.40;99.90
19952;DHT22;10137;49.406;19.484;2024-03-25T11:53:14;7.20;99.90
19952;DHT22;10137;49.406;19.484;2024-03-25T11:55:46;7.20;99.90
19952;DHT22;10137;49.406;19.484;2024-03-25T11:58:13;7.30;99.90
19952;DHT22;10137;49.406;19.484;2024-03-25T12:00:46;7.20;99.90
19952;DHT22;10137;49.406;19.484;2024-03-25T12:03:13;7.30;99.90
19952;DHT22;10137;49.406;19.484;2024-03-25T12:05:40;7.40;99.90
19952;DHT22;10137;49.406;19.484;2024-03-25T12:08:08;7.50;99.90
19952;DHT22;10137;49.406;19.484;2024-03-25T12:10:34;7.50;99.90
19952;DHT22;10137;49.406;19.484;2024-03-25T12:13:19;7.60;99.90
19952;DHT22;10137;49.406;19.484;2024-03-25T12:15:44;7.80;99.90
19952;DHT22;10137;49.406;19.484;2024-03-25T12:18:10;7.90;99.90
19952;DHT22;10137;49.406;19.484;2024-03-25T12:20:36;8.00;99.90
19952;DHT22;10137;49.406;19.484;2024-03-25T12:23:02;7.90;99.90
19952;DHT22;10137;49.406;19.484;2024-03-25T12:25:28;7.90;99.90
19952;DHT22;10137;49.406;19.484;2024-03-25T12:27:54;7.90;99.90
19952;DHT22;10137;49.406;19.484;2024-03-25T12:30:19;7.90;99.90
19952;DHT22;10137;49.406;19.484;2024-03-25T12:32:45;7.80;99.90
19952;DHT22;10137;49.406;19.484;2024-03-25T12:35:15;7.50;99.90
19952;DHT22;10137;49.406;19.484;2024-03-25T12:37:42;7.10;99.90
19952;DHT22;10137;49.406;19.484;2024-03-25T12:40:14;7.10;99.90
19952;DHT22;10137;49.406;19.484;2024-03-25T12:42:52;7.10;99.90
19952;DHT22;10137;49.406;19.484;2024-03-25T12:45:19;7.00;99.90
19952;DHT22;10137;49.406;19.484;2024-03-25T12:47:45;6.90;99.90
19952;DHT22;10137;49.406;19.484;2024-03-25T12:50:10;6.80;99.90
19952;DHT22;10137;49.406;19.484;2024-03-25T12:52:36;6.80;99.90
19952;DHT22;10137;49.406;19.484;2024-03-25T12:55:02;6.70;99.90
19952;DHT22;10137;49.406;19.484;2024-03-25T12:57:28;6.70;99.90
19952;DHT22;10137;49.406;19.484;2024-03-25T12:59:54;6.60;99.90
19952;DHT22;10137;49.406;19.484;2024-03-25T13:02:19;6.60;99.90
19952;DHT22;10137;49.406;19.484;2024-03-25T13:04:45;6.60;99.90
19952;DHT22;10137;49.406;19.484;2024-03-25T13:07:11;6.50;99.90
19952;DHT22;10137;49.406;19.484;2024-03-25T13:09:36;6.50;99.90
19952;DHT22;10137;49.406;19.484;2024-03-25T13:12:03;6.60;99.90
19952;DHT22;10137;49.406;19.484;2024-03-25T13:14:29;6.60;99.90
19952;DHT22;10137;49.406;19.484;2024-03-25T13:16:55;6.60;99.90
19952;DHT22;10137;49.406;19.484;2024-03-25T13:19:21;6.60;99.90
19952;DHT22;10137;49.406;19.484;2024-03-25T13:21:47;6.50;99.90
19952;DHT22;10137;49.406;19.484;2024-03-25T13:24:13;6.40;99.90
19952;DHT22;10137;49.406;19.484;2024-03-25T13:26:39;6.20;99.90
19952;DHT22;10137;49.406;19.484;2024-03-25T13:29:05;6.10;99.90
19952;DHT22;10137;49.406;19.484;2024-03-25T13:31:31;6.00;99.90
19952;DHT22;10137;49.406;19.484;2024-03-25T13:33:56;5.90;99.90
19952;DHT22;10137;49.406;19.484;2024-03-25T13:36:22;6.10;99.90
19952;DHT22;10137;49.406;19.484;2024-03-25T13:38:48;6.00;99.90
19952;DHT22;10137;49.406;19.484;2024-03-25T13:41:14;6.10;99.90
19952;DHT22;10137;49.406;19.484;2024-03-25T13:43:43;6.00;99.90
19952;DHT22;10137;49.406;19.484;2024-03-25T13:46:08;5.80;99.90
19952;DHT22;10137;49.406;19.484;2024-03-25T13:48:34;5.70;99.90
19952;DHT22;10137;49.406;19.484;2024-03-25T13:51:00;5.60;99.90
19952;DHT22;10137;49.406;19.484;2024-03-25T13:53:26;5.30;99.90
19952;DHT22;10137;49.406;19.484;2024-03-25T13:55:51;5.10;99.90
19952;DHT22;10137;49.406;19.484;2024-03-25T13:58:17;5.00;99.90
19952;DHT22;10137;49.406;19.484;2024-03-25T14:00:43;4.70;99.90
19952;DHT22;10137;49.406;19.484;2024-03-25T14:03:08;4.60;99.90
19952;DHT22;10137;49.406;19.484;2024-03-25T14:05:34;4.50;99.90
19952;DHT22;10137;49.406;19.484;2024-03-25T14:08:00;4.40;99.90
19952;DHT22;10137;49.406;19.484;2024-03-25T14:10:26;4.50;99.90
19952;DHT22;10137;49.406;19.484;2024-03-25T14:12:51;4.60;99.90
19952;DHT22;10137;49.406;19.484;2024-03-25T14:15:17;4.50;99.90
19952;DHT22;10137;49.406;19.484;2024-03-25T14:17:43;4.50;99.90
19952;DHT22;10137;49.406;19.484;2024-03-25T14:20:09;4.60;99.90
19952;DHT22;10137;49.406;19.484;2024-03-25T14:22:35;4.60;99.90
19952;DHT22;10137;49.406;19.484;2024-03-25T14:25:01;4.70;99.90
19952;DHT22;10137;49.406;19.484;2024-03-25T14:27:26;4.90;99.90
19952;DHT22;10137;49.406;19.484;2024-03-25T14:29:52;4.90;99.90
19952;DHT22;10137;49.406;19.484;2024-03-25T14:32:22;4.90;99.90
19952;DHT22;10137;49.406;19.484;2024-03-25T14:34:48;5.00;99.90
19952;DHT22;10137;49.406;19.484;2024-03-25T14:37:14;5.10;99.90
19952;DHT22;10137;49.406;19.484;2024-03-25T14:39:41;5.30;99.90
19952;DHT22;10137;49.406;19.484;2024-03-25T14:42:10;5.30;99.90
19952;DHT22;10137;49.406;19.484;2024-03-25T14:44:36;5.30;99.90
19952;DHT22;10137;49.406;19.484;2024-03-25T14:47:02;5.30;99.90
19952;DHT22;10137;49.406;19.484;2024-03-25T14:49:28;5.30;99.90
19952;DHT22;10137;49.406;19.484;2024-03-25T14:51:54;5.40;99.90
19952;DHT22;10137;49.406;19.484;2024-03-25T14:54:20;5.40;99.90
19952;DHT22;10137;49.406;19.484;2024-03-25T14:56:46;5.40;99.90
19952;DHT22;10137;49.406;19.484;2024-03-25T14:59:12;5.40;99.90
19952;DHT22;10137;49.406;19.484;2024-03-25T15:01:38;5.50;99.90
19952;DHT22;10137;49.406;19.484;2024-03-25T15:04:04;5.50;99.90
19952;DHT22;10137;49.406;19.484;2024-03-25T15:06:30;5.50;99.90
19952;DHT22;10137;49.406;19.484;2024-03-25T15:08:57;5.50;99.90
19952;DHT22;10137;49.406;19.484;2024-03-25T15:11:23;5.50;99.90
19952;DHT22;10137;49.406;19.484;2024-03-25T15:13:50;5.50;99.90
19952;DHT22;10137;49.406;19.484;2024-03-25T15:16:16;5.50;99.90
19952;DHT22;10137;49.406;19.484;2024-03-25T15:18:42;5.40;99.90
19952;DHT22;10137;49.406;19.484;2024-03-25T15:21:07;5.40;99.90
19952;DHT22;10137;49.406;19.484;2024-03-25T15:23:33;5.40;99.90
19952;DHT22;10137;49.406;19.484;2024-03-25T15:25:59;5.40;99.90
19952;DHT22;10137;49.406;19.484;2024-03-25T15:28:25;5.40;99.90